createdAt,value
2022-09-21T00:01:49.869Z,7.90
2022-09-21T00:04:17.087Z,7.90
2022-09-21T00:06:46.546Z,7.90
2022-09-21T00:09:13.746Z,7.80
2022-09-21T00:11:41.182Z,7.70
2022-09-21T00:14:12.314Z,7.60
2022-09-21T00:16:41.688Z,7.60
2022-09-21T00:19:10.121Z,7.60
2022-09-21T00:21:38.344Z,7.50
2022-09-21T00:24:07.579Z,7.50
2022-09-21T00:26:35.421Z,7.50
2022-09-21T00:29:10.192Z,7.50
2022-09-21T00:31:37.710Z,7.50
2022-09-21T00:34:07.937Z,7.50
2022-09-21T00:36:38.782Z,7.50
2022-09-21T00:39:05.710Z,7.50
2022-09-21T00:41:33.803Z,7.50
2022-09-21T00:44:29.390Z,7.40
2022-09-21T00:47:01.650Z,7.40
2022-09-21T00:49:29.333Z,7.40
2022-09-21T00:51:58.786Z,7.30
2022-09-21T00:54:33.556Z,7.40
2022-09-21T00:57:01.892Z,7.30
2022-09-21T00:59:32.343Z,7.30
2022-09-21T01:01:59.898Z,7.30
2022-09-21T01:04:28.469Z,7.40
2022-09-21T01:06:58.406Z,7.40
2022-09-21T01:09:28.250Z,7.40
2022-09-21T01:12:42.554Z,7.30
2022-09-21T01:15:46.517Z,7.30
2022-09-21T01:18:16.316Z,7.30
2022-09-21T01:21:05.200Z,7.30
2022-09-21T01:23:53.837Z,7.30
2022-09-21T01:26:29.993Z,7.30
2022-09-21T01:29:17.369Z,7.30
2022-09-21T01:32:12.268Z,7.30
2022-09-21T01:34:48.658Z,7.30
2022-09-21T01:37:21.377Z,7.20
2022-09-21T01:39:54.230Z,7.20
2022-09-21T01:42:23.237Z,7.20
2022-09-21T01:44:50.814Z,7.20
2022-09-21T01:47:19.066Z,7.20
2022-09-21T01:49:50.541Z,7.10
2022-09-21T01:52:36.461Z,7.10
2022-09-21T01:55:41.353Z,7.00
2022-09-21T01:58:23.227Z,7.00
2022-09-21T02:00:52.381Z,7.00
2022-09-21T02:03:46.177Z,7.00
2022-09-21T02:06:15.144Z,7.00
2022-09-21T02:08:42.502Z,7.10
2022-09-21T02:11:11.689Z,7.10
2022-09-21T02:13:43.207Z,7.00
2022-09-21T02:16:13.333Z,7.10
2022-09-21T02:19:10.973Z,7.10
2022-09-21T02:22:04.186Z,7.10
2022-09-21T02:24:55.945Z,7.10
2022-09-21T02:27:50.348Z,7.20
2022-09-21T02:30:22.149Z,7.20
2022-09-21T02:33:01.398Z,7.20
2022-09-21T02:35:47.036Z,7.20
2022-09-21T02:38:32.352Z,7.30
2022-09-21T02:41:08.781Z,7.30
2022-09-21T02:43:36.033Z,7.30
2022-09-21T02:46:15.371Z,7.30
2022-09-21T02:48:55.315Z,7.30
2022-09-21T02:51:41.780Z,7.30
2022-09-21T02:54:11.596Z,7.30
2022-09-21T02:56:41.408Z,7.40
2022-09-21T02:59:08.790Z,7.40
2022-09-21T03:01:36.284Z,7.50
2022-09-21T03:04:03.552Z,7.50
2022-09-21T03:06:31.517Z,7.50
2022-09-21T03:08:58.770Z,7.50
2022-09-21T03:11:26.044Z,7.50
2022-09-21T03:13:53.153Z,7.50
2022-09-21T03:16:20.506Z,7.60
2022-09-21T03:18:47.433Z,7.60
2022-09-21T03:21:14.944Z,7.50
2022-09-21T03:23:42.258Z,7.60
2022-09-21T03:26:09.157Z,7.50
2022-09-21T03:28:36.016Z,7.60
2022-09-21T03:31:03.260Z,7.60
2022-09-21T03:33:30.180Z,7.60
2022-09-21T03:35:57.095Z,7.60
2022-09-21T03:38:25.030Z,7.60
2022-09-21T03:40:51.979Z,7.60
2022-09-21T03:43:19.018Z,7.60
2022-09-21T03:45:47.288Z,7.60
2022-09-21T03:48:15.814Z,7.70
2022-09-21T03:50:43.036Z,7.70
2022-09-21T03:53:11.211Z,7.60
2022-09-21T03:55:38.676Z,7.60
2022-09-21T03:58:06.020Z,7.60
2022-09-21T04:00:33.255Z,7.70
2022-09-21T04:03:00.328Z,7.70
2022-09-21T04:05:30.125Z,7.70
2022-09-21T04:07:57.471Z,7.70
2022-09-21T04:10:29.339Z,7.80
2022-09-21T04:13:01.586Z,7.80
2022-09-21T04:15:29.684Z,7.80
2022-09-21T04:17:57.475Z,7.80
2022-09-21T04:20:24.575Z,7.80
2022-09-21T04:22:51.928Z,7.90
2022-09-21T04:25:19.236Z,7.90
2022-09-21T04:27:46.396Z,7.90
2022-09-21T04:30:15.497Z,7.90
2022-09-21T04:32:43.444Z,7.90
2022-09-21T04:35:11.203Z,7.90
2022-09-21T04:37:38.264Z,7.90
2022-09-21T04:40:06.158Z,7.90
2022-09-21T04:42:33.325Z,7.90
2022-09-21T04:45:00.474Z,7.80
2022-09-21T04:47:30.502Z,7.90
2022-09-21T04:49:57.857Z,7.90
2022-09-21T04:52:25.534Z,7.80
2022-09-21T04:54:53.143Z,7.90
2022-09-21T04:57:20.147Z,7.90
2022-09-21T04:59:47.327Z,7.90
2022-09-21T05:02:14.508Z,8.00
2022-09-21T05:04:41.764Z,8.00
2022-09-21T05:07:11.885Z,8.10
2022-09-21T05:09:57.285Z,8.00
2022-09-21T05:12:24.265Z,8.00
2022-09-21T05:14:51.238Z,7.90
2022-09-21T05:17:18.425Z,7.90
2022-09-21T05:19:45.345Z,7.90
2022-09-21T05:22:12.321Z,7.90
2022-09-21T05:24:39.359Z,7.90
2022-09-21T05:27:06.385Z,7.90
2022-09-21T05:29:33.718Z,8.00
2022-09-21T05:32:24.232Z,8.00
2022-09-21T05:35:07.048Z,8.10
2022-09-21T05:37:49.076Z,8.20
2022-09-21T05:40:16.575Z,8.20
2022-09-21T05:42:43.964Z,8.30
2022-09-21T05:45:17.021Z,8.40
2022-09-21T05:48:05.340Z,8.40
2022-09-21T05:50:45.643Z,8.50
2022-09-21T05:53:46.555Z,8.60
2022-09-21T05:56:37.077Z,8.80
2022-09-21T05:59:12.977Z,9.10
2022-09-21T06:02:04.850Z,9.00
2022-09-21T06:04:32.264Z,9.00
2022-09-21T06:06:59.112Z,8.90
2022-09-21T06:09:26.945Z,8.90
2022-09-21T06:11:53.981Z,8.90
2022-09-21T06:14:24.921Z,9.00
2022-09-21T06:16:52.584Z,10.40
2022-09-21T06:19:19.932Z,11.60
2022-09-21T06:21:47.121Z,12.10
2022-09-21T06:24:14.186Z,12.20
2022-09-21T06:26:41.580Z,12.60
2022-09-21T06:29:08.483Z,13.40
2022-09-21T06:31:36.768Z,13.70
2022-09-21T06:34:03.824Z,14.10
2022-09-21T06:36:31.252Z,14.10
2022-09-21T06:39:01.187Z,14.00
2022-09-21T06:41:28.191Z,14.20
2022-09-21T06:43:57.161Z,14.30
2022-09-21T06:46:24.466Z,13.40
2022-09-21T06:48:52.142Z,13.20
2022-09-21T06:51:21.033Z,12.70
2022-09-21T06:53:48.821Z,13.00
2022-09-21T06:56:16.464Z,13.00
2022-09-21T06:58:43.601Z,13.90
2022-09-21T07:01:14.379Z,14.10
2022-09-21T07:03:43.100Z,14.40
2022-09-21T07:06:11.987Z,14.70
2022-09-21T07:11:27.705Z,15.70
2022-09-21T07:13:56.306Z,15.80
2022-09-21T07:16:24.351Z,15.60
2022-09-21T07:18:51.480Z,15.90
2022-09-21T07:21:18.801Z,15.90
2022-09-21T07:23:45.734Z,15.80
2022-09-21T07:26:13.961Z,15.80
2022-09-21T07:28:41.230Z,15.90
2022-09-21T07:31:10.645Z,15.80
2022-09-21T07:33:38.087Z,16.20
2022-09-21T07:36:10.581Z,16.10
2022-09-21T07:38:39.972Z,16.40
2022-09-21T07:41:11.524Z,16.20
2022-09-21T07:43:41.780Z,16.60
2022-09-21T07:46:13.519Z,16.10
2022-09-21T07:48:41.316Z,16.70
2022-09-21T07:51:11.296Z,16.90
2022-09-21T07:53:40.589Z,17.00
2022-09-21T07:56:19.459Z,16.10
2022-09-21T07:59:05.260Z,14.90
2022-09-21T08:01:37.932Z,14.70
2022-09-21T08:04:07.461Z,15.00
2022-09-21T08:06:36.168Z,15.00
2022-09-21T08:09:04.274Z,16.20
2022-09-21T08:11:33.355Z,17.00
2022-09-21T08:14:02.821Z,15.90
2022-09-21T08:16:31.545Z,15.00
2022-09-21T08:18:58.817Z,14.70
2022-09-21T08:21:25.917Z,14.30
2022-09-21T08:23:53.122Z,14.30
2022-09-21T08:26:20.814Z,14.40
2022-09-21T08:28:49.981Z,14.30
2022-09-21T08:31:19.659Z,14.10
2022-09-21T08:33:48.025Z,14.00
2022-09-21T08:36:15.089Z,13.80
2022-09-21T08:38:42.234Z,13.80
2022-09-21T08:41:24.662Z,13.70
2022-09-21T08:44:03.296Z,13.20
2022-09-21T08:46:33.255Z,13.20
2022-09-21T08:49:10.258Z,13.50
2022-09-21T08:51:42.656Z,13.80
2022-09-21T08:54:35.165Z,13.40
2022-09-21T08:57:05.389Z,13.40
2022-09-21T08:59:34.377Z,13.40
2022-09-21T09:02:41.217Z,13.50
2022-09-21T09:05:29.257Z,13.50
2022-09-21T09:07:56.332Z,13.60
2022-09-21T09:10:48.822Z,13.40
2022-09-21T09:13:53.948Z,13.40
2022-09-21T09:16:47.870Z,13.40
2022-09-21T09:19:41.530Z,13.20
2022-09-21T09:22:13.485Z,13.40
2022-09-21T09:24:51.838Z,13.50
2022-09-21T09:27:24.351Z,13.50
2022-09-21T09:29:55.852Z,13.60
2022-09-21T09:32:31.756Z,13.50
2022-09-21T09:35:24.411Z,13.40
2022-09-21T09:37:55.556Z,13.40
2022-09-21T09:40:52.006Z,13.20
2022-09-21T09:43:47.435Z,13.10
2022-09-21T09:46:44.685Z,13.10
2022-09-21T09:49:25.128Z,13.30
2022-09-21T09:51:52.506Z,13.30
2022-09-21T09:54:24.194Z,13.50
2022-09-21T09:56:51.370Z,13.20
2022-09-21T09:59:37.721Z,13.30
2022-09-21T10:02:27.880Z,13.10
2022-09-21T10:05:09.494Z,13.20
2022-09-21T10:07:48.218Z,13.30
2022-09-21T10:10:36.565Z,13.40
2022-09-21T10:13:14.422Z,13.60
2022-09-21T10:15:50.120Z,13.70
2022-09-21T10:18:44.972Z,13.60
2022-09-21T10:21:38.131Z,13.50
2022-09-21T10:24:20.897Z,13.40
2022-09-21T10:27:16.214Z,13.50
2022-09-21T10:29:48.559Z,13.40
2022-09-21T10:32:18.570Z,13.40
2022-09-21T10:35:13.238Z,13.60
2022-09-21T10:37:48.732Z,13.70
2022-09-21T10:40:21.853Z,13.80
2022-09-21T10:42:50.745Z,13.80
2022-09-21T10:45:29.708Z,13.90
2022-09-21T10:48:06.123Z,13.90
2022-09-21T10:50:45.278Z,14.00
2022-09-21T10:53:25.067Z,14.00
2022-09-21T10:56:17.466Z,13.70
2022-09-21T10:59:10.761Z,13.80
2022-09-21T11:01:45.020Z,13.80
2022-09-21T11:04:51.095Z,13.80
2022-09-21T11:07:21.107Z,13.90
2022-09-21T11:10:03.829Z,14.00
2022-09-21T11:12:50.551Z,14.10
2022-09-21T11:15:34.272Z,14.20
2022-09-21T11:18:32.345Z,14.00
2022-09-21T11:21:05.119Z,14.00
2022-09-21T11:23:41.161Z,14.00
2022-09-21T11:26:23.990Z,14.10
2022-09-21T11:29:06.899Z,14.00
2022-09-21T11:31:42.041Z,13.90
2022-09-21T11:34:27.330Z,13.90
2022-09-21T11:37:16.109Z,13.90
2022-09-21T11:40:10.750Z,14.00
2022-09-21T11:42:55.820Z,14.00
2022-09-21T11:45:48.426Z,14.00
2022-09-21T11:48:23.156Z,14.00
2022-09-21T11:51:07.503Z,14.10
2022-09-21T11:54:04.422Z,14.00
2022-09-21T11:56:43.523Z,14.20
2022-09-21T11:59:23.979Z,14.20
2022-09-21T12:02:14.964Z,14.00
2022-09-21T12:04:55.396Z,14.00
2022-09-21T12:08:03.769Z,14.00
2022-09-21T12:10:44.893Z,14.10
2022-09-21T12:13:28.086Z,14.20
2022-09-21T12:16:17.329Z,14.30
2022-09-21T12:19:11.411Z,14.10
2022-09-21T12:21:44.455Z,14.10
2022-09-21T12:24:31.873Z,14.30
2022-09-21T12:27:05.869Z,14.40
2022-09-21T12:29:44.656Z,14.90
2022-09-21T12:32:36.312Z,15.50
2022-09-21T12:35:08.473Z,15.70
2022-09-21T12:37:48.047Z,16.20
2022-09-21T12:40:28.548Z,16.80
2022-09-21T12:43:07.621Z,17.60
2022-09-21T12:45:41.724Z,17.40
2022-09-21T12:48:14.313Z,16.30
2022-09-21T12:51:05.846Z,16.40
2022-09-21T12:53:37.936Z,16.80
2022-09-21T12:56:19.634Z,16.70
2022-09-21T12:59:07.400Z,16.90
2022-09-21T13:01:50.517Z,15.90
2022-09-21T13:04:23.578Z,16.30
2022-09-21T13:07:09.495Z,16.10
2022-09-21T13:09:42.601Z,16.20
2022-09-21T13:12:25.031Z,16.20
2022-09-21T13:14:59.312Z,15.50
2022-09-21T13:17:31.342Z,16.10
2022-09-21T13:20:01.241Z,15.70
2022-09-21T13:22:33.449Z,15.50
2022-09-21T13:25:19.337Z,15.60
2022-09-21T13:28:19.922Z,15.60
2022-09-21T13:30:50.236Z,15.30
2022-09-21T13:33:20.182Z,15.20
2022-09-21T13:36:03.959Z,15.10
2022-09-21T13:38:41.240Z,15.00
2022-09-21T13:41:17.661Z,14.90
2022-09-21T13:43:59.693Z,14.80
2022-09-21T13:46:35.467Z,14.80
2022-09-21T13:49:12.081Z,14.80
2022-09-21T13:52:12.220Z,14.90
2022-09-21T13:54:44.920Z,14.90
2022-09-21T13:57:40.165Z,15.00
2022-09-21T14:00:13.248Z,15.00
2022-09-21T14:02:44.142Z,14.90
2022-09-21T14:05:30.021Z,14.90
2022-09-21T14:08:02.398Z,14.80
2022-09-21T14:10:32.392Z,14.80
2022-09-21T14:13:01.174Z,14.60
2022-09-21T14:15:37.546Z,14.60
2022-09-21T14:18:17.102Z,14.70
2022-09-21T14:21:19.906Z,14.70
2022-09-21T14:24:20.572Z,14.70
2022-09-21T14:27:26.551Z,14.80
2022-09-21T14:29:55.600Z,14.80
2022-09-21T14:32:26.759Z,14.80
2022-09-21T14:35:03.260Z,14.90
2022-09-21T14:37:30.262Z,14.90
2022-09-21T14:39:57.969Z,14.90
2022-09-21T14:42:29.487Z,14.80
2022-09-21T14:45:02.270Z,14.70
2022-09-21T14:47:57.524Z,14.70
2022-09-21T14:50:32.408Z,14.70
2022-09-21T14:53:08.752Z,14.90
2022-09-21T14:55:42.089Z,14.90
2022-09-21T14:58:41.626Z,14.90
2022-09-21T15:01:31.611Z,14.80
2022-09-21T15:04:18.181Z,14.80
2022-09-21T15:07:03.876Z,14.70
2022-09-21T15:10:24.099Z,14.80
2022-09-21T15:13:32.628Z,14.60
2022-09-21T15:16:27.620Z,14.60
2022-09-21T15:19:22.452Z,14.70
2022-09-21T15:22:11.249Z,14.70
2022-09-21T15:24:48.586Z,14.70
2022-09-21T15:27:18.610Z,14.60
2022-09-21T15:29:49.584Z,14.70
2022-09-21T15:32:24.892Z,14.60
2022-09-21T15:35:01.549Z,14.60
2022-09-21T15:37:29.725Z,14.60
2022-09-21T15:40:04.645Z,14.50
2022-09-21T15:42:32.096Z,14.30
2022-09-21T15:45:17.490Z,14.30
2022-09-21T15:47:46.498Z,13.90
2022-09-21T15:50:15.714Z,13.90
2022-09-21T15:52:48.818Z,13.90
2022-09-21T15:55:21.675Z,13.70
2022-09-21T15:57:59.033Z,13.50
2022-09-21T16:00:30.337Z,13.50
2022-09-21T16:03:19.239Z,13.50
2022-09-21T16:05:49.368Z,13.50
2022-09-21T16:08:30.254Z,13.40
2022-09-21T16:11:26.353Z,13.40
2022-09-21T16:14:32.873Z,13.30
2022-09-21T16:17:13.295Z,13.30
2022-09-21T16:19:45.287Z,13.20
2022-09-21T16:22:14.505Z,13.20
2022-09-21T16:24:50.622Z,13.20
2022-09-21T16:27:19.577Z,13.10
2022-09-21T16:29:49.862Z,13.00
2022-09-21T16:32:20.199Z,13.00
2022-09-21T16:34:49.094Z,13.00
2022-09-21T16:37:30.933Z,12.90
2022-09-21T16:39:59.533Z,12.90
2022-09-21T16:42:33.163Z,12.80
2022-09-21T16:45:01.042Z,12.80
2022-09-21T16:47:28.859Z,12.70
2022-09-21T16:50:01.672Z,12.70
2022-09-21T16:52:30.143Z,12.60
2022-09-21T16:54:58.833Z,12.50
2022-09-21T16:57:26.808Z,12.40
2022-09-21T16:59:55.380Z,12.50
2022-09-21T17:02:22.469Z,12.30
2022-09-21T17:04:49.594Z,12.30
2022-09-21T17:07:17.146Z,12.20
2022-09-21T17:09:47.936Z,12.30
2022-09-21T17:12:17.942Z,12.30
2022-09-21T17:14:46.991Z,12.20
2022-09-21T17:17:20.997Z,12.10
2022-09-21T17:19:51.308Z,12.00
2022-09-21T17:22:19.114Z,12.00
2022-09-21T17:24:51.366Z,12.00
2022-09-21T17:27:24.016Z,12.00
2022-09-21T17:29:54.096Z,11.90
2022-09-21T17:32:23.841Z,11.90
2022-09-21T17:35:19.076Z,11.80
2022-09-21T17:37:46.531Z,11.80
2022-09-21T17:40:14.415Z,11.80
2022-09-21T17:42:45.039Z,11.70
2022-09-21T17:45:26.987Z,11.70
2022-09-21T17:47:54.583Z,11.70
2022-09-21T17:50:26.288Z,11.60
2022-09-21T17:53:13.429Z,11.60
2022-09-21T17:56:05.079Z,11.50
2022-09-21T17:59:06.078Z,11.60
2022-09-21T18:01:39.802Z,11.50
2022-09-21T18:04:10.900Z,11.50
2022-09-21T18:06:38.228Z,11.50
2022-09-21T18:09:05.899Z,11.30
2022-09-21T18:11:40.824Z,11.30
2022-09-21T18:14:40.331Z,11.30
2022-09-21T18:17:52.057Z,11.30
2022-09-21T18:20:25.201Z,11.30
2022-09-21T18:22:58.774Z,11.30
2022-09-21T18:25:49.693Z,11.30
2022-09-21T18:28:38.080Z,11.30
2022-09-21T18:31:29.955Z,11.20
2022-09-21T18:34:19.798Z,11.20
2022-09-21T18:36:52.652Z,11.00
2022-09-21T18:39:39.773Z,11.00
2022-09-21T18:42:19.894Z,11.00
2022-09-21T18:45:05.907Z,11.00
2022-09-21T18:47:59.277Z,11.00
2022-09-21T18:51:10.099Z,10.90
2022-09-21T18:53:47.854Z,10.90
2022-09-21T18:56:15.654Z,10.90
2022-09-21T18:58:43.239Z,10.90
2022-09-21T19:01:15.138Z,10.90
2022-09-21T19:03:45.079Z,10.80
2022-09-21T19:06:34.658Z,10.90
2022-09-21T19:09:25.536Z,10.80
2022-09-21T19:12:06.045Z,10.80
2022-09-21T19:14:42.129Z,10.80
2022-09-21T19:17:44.768Z,10.90
2022-09-21T19:20:38.280Z,10.80
2022-09-21T19:23:26.902Z,10.70
2022-09-21T19:26:01.761Z,10.80
2022-09-21T19:28:53.362Z,10.70
2022-09-21T19:31:20.877Z,10.70
2022-09-21T19:33:50.716Z,10.70
2022-09-21T19:36:19.375Z,10.70
2022-09-21T19:38:46.771Z,10.60
2022-09-21T19:41:38.348Z,10.60
2022-09-21T19:44:46.192Z,10.50
2022-09-21T19:47:29.599Z,10.50
2022-09-21T19:50:20.825Z,10.50
2022-09-21T19:52:48.906Z,10.40
2022-09-21T19:55:40.410Z,10.40
2022-09-21T19:58:27.356Z,10.30
2022-09-21T20:00:57.063Z,10.40
2022-09-21T20:03:31.243Z,10.30
2022-09-21T20:06:04.843Z,10.20
2022-09-21T20:08:44.002Z,10.20
2022-09-21T20:11:18.583Z,10.20
2022-09-21T20:14:07.265Z,10.20
2022-09-21T20:16:46.762Z,10.10
2022-09-21T20:19:33.802Z,10.20
2022-09-21T20:22:09.070Z,10.10
2022-09-21T20:25:02.116Z,10.20
2022-09-21T20:27:34.947Z,10.10
2022-09-21T20:30:03.980Z,10.00
2022-09-21T20:32:31.128Z,10.10
2022-09-21T20:34:58.199Z,10.10
2022-09-21T20:37:27.333Z,10.10
2022-09-21T20:39:54.623Z,10.00
2022-09-21T20:42:24.425Z,10.00
2022-09-21T20:44:52.010Z,9.90
2022-09-21T20:47:20.522Z,9.90
2022-09-21T20:49:48.696Z,9.90
2022-09-21T20:52:17.412Z,9.90
2022-09-21T20:54:49.037Z,9.80
2022-09-21T20:57:17.924Z,9.80
2022-09-21T20:59:44.871Z,9.70
2022-09-21T21:02:13.458Z,9.70
2022-09-21T21:04:41.319Z,9.70
2022-09-21T21:07:08.433Z,9.70
2022-09-21T21:09:35.703Z,9.60
2022-09-21T21:12:02.694Z,9.60
2022-09-21T21:14:30.009Z,9.60
2022-09-21T21:16:56.930Z,9.50
2022-09-21T21:19:24.275Z,9.50
2022-09-21T21:21:51.291Z,9.40
2022-09-21T21:24:36.705Z,9.50
2022-09-21T21:27:03.932Z,9.50
2022-09-21T21:29:32.210Z,9.50
2022-09-21T21:31:59.887Z,9.50
2022-09-21T21:34:27.467Z,9.50
2022-09-21T21:36:54.516Z,9.50
2022-09-21T21:39:21.845Z,9.40
2022-09-21T21:41:49.036Z,9.40
2022-09-21T21:44:16.034Z,9.50
2022-09-21T21:46:43.531Z,9.50
2022-09-21T21:49:10.545Z,9.40
2022-09-21T21:51:37.470Z,9.40
2022-09-21T21:54:04.633Z,9.40
2022-09-21T21:56:32.020Z,9.40
2022-09-21T21:58:59.013Z,9.40
2022-09-21T22:01:29.687Z,9.40
2022-09-21T22:03:59.470Z,9.40
2022-09-21T22:06:27.651Z,9.30
2022-09-21T22:08:56.167Z,9.30
2022-09-21T22:11:25.265Z,9.20
2022-09-21T22:13:56.365Z,9.30
2022-09-21T22:16:25.101Z,9.30
2022-09-21T22:18:53.525Z,9.30
2022-09-21T22:21:29.268Z,9.30
2022-09-21T22:23:57.659Z,9.20
2022-09-21T22:26:26.065Z,9.20
2022-09-21T22:28:56.861Z,9.20
2022-09-21T22:31:29.538Z,9.10
2022-09-21T22:33:57.658Z,9.10
2022-09-21T22:36:27.134Z,9.10
2022-09-21T22:38:55.119Z,9.10
2022-09-21T22:41:24.980Z,9.20
2022-09-21T22:43:54.687Z,9.20
2022-09-21T22:46:22.662Z,9.10
2022-09-21T22:48:50.100Z,9.10
2022-09-21T22:51:18.345Z,9.10
2022-09-21T22:53:46.453Z,9.10
2022-09-21T22:56:16.145Z,9.10
2022-09-21T22:58:45.771Z,9.10
2022-09-21T23:01:29.662Z,9.10
2022-09-21T23:04:03.140Z,9.10
2022-09-21T23:06:33.740Z,9.10
2022-09-21T23:09:02.479Z,9.10
2022-09-21T23:11:35.848Z,9.10
2022-09-21T23:14:03.998Z,9.10
2022-09-21T23:16:31.657Z,9.00
2022-09-21T23:18:59.792Z,9.00
2022-09-21T23:21:29.394Z,8.90
2022-09-21T23:24:02.004Z,8.90
2022-09-21T23:26:31.539Z,8.90
2022-09-21T23:29:01.232Z,9.00
2022-09-21T23:31:29.374Z,8.90
2022-09-21T23:33:59.465Z,9.00
2022-09-21T23:36:29.417Z,8.90
2022-09-21T23:38:57.468Z,8.90
2022-09-21T23:41:30.178Z,8.90
2022-09-21T23:43:58.385Z,8.90
2022-09-21T23:46:34.137Z,8.80
2022-09-21T23:49:02.101Z,8.80
2022-09-21T23:51:30.118Z,8.80
2022-09-21T23:53:57.927Z,8.80
2022-09-21T23:56:25.734Z,8.80
2022-09-21T23:58:53.296Z,8.80
